Flight Track Log - Related Links

Times and Time Zones

All times are in EDT time to prevent confusion due to time zone crossing. See the N777NC flight status page for this flight to view local times or setup timezone preferences in your user account.

Time Position Orientation Groundspeed Altitude Reporting Facility
EDT Latitude Longitude Course Direction KTS MPH feet Rate Location/Type
Sun 06:05:51 PM 34.5631 -86.6222 81° East 273 314 4,700  Level Memphis Center
Sun 06:06:00 PM 34.5333 -86.4358 90° East  Level FlightAware Approximate
Sun 06:07:00 PM 34.5102 -86.3522 109° East  Level FlightAware Approximate
Sun 06:07:33 PM 34.5781 -86.4708 83° East 319 367 8,700  Level Atlanta Center
Sun 06:08:00 PM 34.4869 -86.2686 108° East  Level FlightAware Approximate
Sun 06:08:33 PM 34.5800 -86.3700 89° East 305 351 10,900  Level Atlanta Center
Sun 06:09:00 PM 34.4597 -86.1687 108° East  Level FlightAware Approximate
Sun 06:09:33 PM 34.5653 -86.2586 99° East 300 345 12,700  Level Atlanta Center
Sun 06:10:00 PM 34.4362 -86.0682 109° East  Level FlightAware Approximate
Sun 06:10:33 PM 34.5442 -86.1469 103° East 318 366 13,600  Level Atlanta Center
Sun 06:11:33 PM 34.5067 -86.0275 111° Southeast 352 405 14,800 1,500 Climbing Atlanta Center
Sun 06:12:33 PM 34.4647 -85.9058 113° Southeast 374 430 16,600 1,550 Climbing Atlanta Center
Sun 06:13:33 PM 34.4183 -85.7964 117° Southeast 387 445 17,900 1,150 Climbing Atlanta Center
Sun 06:14:33 PM 34.3678 -85.6719 116° Southeast 400 460 18,900 550 Climbing Atlanta Center
Sun 06:15:33 PM 34.3133 -85.5378 116° Southeast 424 488 19,000 50 Climbing Atlanta Center
Sun 06:16:33 PM 34.2647 -85.3886 111° Southeast 434 499 19,000 -800 Level Atlanta Center
Sun 06:17:33 PM 34.2222 -85.2597 112° Southeast 434 499 17,400 -2,050 Descending Atlanta Center
Sun 06:18:33 PM 34.1714 -85.1336 116° Southeast 420 483 14,900 -1,600 Descending Atlanta Center
Sun 06:19:33 PM 34.1075 -85.0272 126° Southeast 400 460 14,200 -550 Descending Atlanta Center
Sun 06:20:33 PM 34.0269 -84.9361 137° Southeast 387 445 13,800 -650 Descending Atlanta Center
Sun 06:21:33 PM 33.9522 -84.8503 136° Southeast 382 440 12,900 -850 Descending Atlanta Center
Sun 06:22:33 PM 33.8819 -84.7569 132° Southeast 377 434 12,100 -450 Descending Atlanta Center
Sun 06:23:33 PM 33.8136 -84.6614 131° Southeast 377 434 12,000 -50 Descending Atlanta Center
Sun 06:24:33 PM 33.7533 -84.5783 131° Southeast 354 407 12,000 -700 Level Atlanta Center
Sun 06:25:33 PM 33.7411 -84.4883 99° East 294 338 10,600 -1,600 Descending Atlanta Center
Sun 06:26:33 PM 33.7417 -84.4011 90° East 265 305 8,800 -1,900 Descending Atlanta Center
Sun 06:27:33 PM 33.7397 -84.3161 92° East 259 298 6,800 -1,955 Descending Atlanta Center
Sun 06:28:45 PM 33.7000 -84.2500 126° Southeast 229 264 4,500 -1,773 Descending Atlanta TRACON
Sun 06:29:45 PM 33.6500 -84.2833 209° Southwest 209 241 2,900 -1,227 Descending Atlanta TRACON
Sun 06:30:57 PM 33.6500 -84.3500 270° West 171 197 1,800 -917 Descending Atlanta TRACON

Login

Don't have an account? Register now (free) for customized features, flight alerts, and more!